createdAt,value
2022-11-20T00:00:06.503Z,29.80
2022-11-20T00:05:29.751Z,28.20
2022-11-20T00:10:33.290Z,23.50
2022-11-20T00:15:36.588Z,26.50
2022-11-20T00:20:39.778Z,27.10
2022-11-20T00:25:43.091Z,27.30
2022-11-20T00:30:46.289Z,27.40
2022-11-20T00:35:49.502Z,25.10
2022-11-20T00:41:04.737Z,28.70
2022-11-20T00:46:15.605Z,29.40
2022-11-20T00:51:21.779Z,29.10
2022-11-20T00:56:25.264Z,25.20
2022-11-20T01:01:30.519Z,28.70
2022-11-20T01:06:37.070Z,24.40
2022-11-20T01:11:43.497Z,25.30
2022-11-20T01:16:50.607Z,31.10
2022-11-20T01:21:55.801Z,24.30
2022-11-20T01:26:59.077Z,22.80
2022-11-20T01:32:02.305Z,28.40
2022-11-20T01:37:05.846Z,21.00
2022-11-20T01:42:27.698Z,32.00
2022-11-20T01:47:40.861Z,28.30
2022-11-20T01:52:58.586Z,26.40
2022-11-20T01:58:05.290Z,28.90
2022-11-20T02:03:13.652Z,25.50
2022-11-20T02:08:18.620Z,23.90
2022-11-20T02:13:40.530Z,31.60
2022-11-20T02:18:45.606Z,33.00
2022-11-20T02:23:54.830Z,28.30
2022-11-20T02:29:01.089Z,31.20
2022-11-20T02:34:04.515Z,29.80
2022-11-20T02:39:08.583Z,28.50
2022-11-20T02:44:11.904Z,28.20
2022-11-20T02:49:15.265Z,28.00
2022-11-20T02:54:18.870Z,32.10
2022-11-20T02:59:22.587Z,27.20
2022-11-20T03:04:26.216Z,30.20
2022-11-20T03:09:29.404Z,31.90
2022-11-20T03:14:32.702Z,27.20
2022-11-20T03:19:36.018Z,30.10
2022-11-20T03:24:39.255Z,30.40
2022-11-20T03:29:42.489Z,31.40
2022-11-20T03:34:45.732Z,24.00
2022-11-20T03:39:48.896Z,39.50
2022-11-20T03:44:53.267Z,25.20
2022-11-20T03:49:56.454Z,31.80
2022-11-20T03:54:59.971Z,28.60
2022-11-20T04:00:04.893Z,34.50
2022-11-20T04:05:08.306Z,27.00
2022-11-20T04:10:11.582Z,31.10
2022-11-20T04:15:14.852Z,30.50
2022-11-20T04:20:18.058Z,32.00
2022-11-20T04:25:21.346Z,31.80
2022-11-20T04:30:24.602Z,35.50
2022-11-20T04:35:27.849Z,34.70
2022-11-20T04:40:31.917Z,28.10
2022-11-20T04:45:35.097Z,30.40
2022-11-20T04:50:42.066Z,28.50
2022-11-20T04:55:45.774Z,30.30
2022-11-20T05:00:49.046Z,32.90
2022-11-20T05:05:52.267Z,29.80
2022-11-20T05:10:55.484Z,31.30
2022-11-20T05:16:07.952Z,30.40
2022-11-20T05:21:13.313Z,31.70
2022-11-20T05:26:25.436Z,25.50
2022-11-20T05:31:28.805Z,24.70
2022-11-20T05:36:32.088Z,38.50
2022-11-20T05:41:35.349Z,28.20
2022-11-20T05:46:38.590Z,34.80
2022-11-20T05:51:41.828Z,36.60
2022-11-20T05:56:45.663Z,35.20
2022-11-20T06:01:48.860Z,36.80
2022-11-20T06:06:52.489Z,24.30
2022-11-20T06:11:55.800Z,28.20
2022-11-20T06:16:59.324Z,39.40
2022-11-20T06:22:02.509Z,34.00
2022-11-20T06:27:05.691Z,38.50
2022-11-20T06:32:09.092Z,39.50
2022-11-20T06:37:12.284Z,35.50
2022-11-20T06:42:15.553Z,28.70
2022-11-20T06:47:18.763Z,32.10
2022-11-20T06:52:22.012Z,39.20
2022-11-20T06:57:26.072Z,37.70
2022-11-20T07:02:29.271Z,27.90
2022-11-20T07:07:32.562Z,35.90
2022-11-20T07:12:35.852Z,33.70
2022-11-20T07:17:39.233Z,35.30
2022-11-20T07:22:43.238Z,41.20
2022-11-20T07:27:46.505Z,40.20
2022-11-20T07:32:54.385Z,31.70
2022-11-20T07:37:57.564Z,45.80
2022-11-20T07:43:00.791Z,35.70
2022-11-20T07:48:04.248Z,41.90
2022-11-20T07:53:07.590Z,50.90
2022-11-20T07:58:10.869Z,45.70
2022-11-20T08:03:14.592Z,45.20
2022-11-20T08:08:17.793Z,44.60
2022-11-20T08:13:41.651Z,54.00
2022-11-20T08:18:45.367Z,47.80
2022-11-20T08:23:48.697Z,36.70
2022-11-20T08:28:56.079Z,37.30
2022-11-20T08:33:59.417Z,45.90
2022-11-20T08:39:03.138Z,45.30
2022-11-20T08:44:08.679Z,41.80
2022-11-20T08:49:13.548Z,36.80
2022-11-20T08:54:18.791Z,34.20
2022-11-20T09:00:04.549Z,39.70
2022-11-20T09:04:45.478Z,41.10
2022-11-20T09:10:03.831Z,38.30
2022-11-20T09:15:14.036Z,41.30
2022-11-20T09:20:17.391Z,42.60
2022-11-20T09:25:20.623Z,41.70
2022-11-20T09:30:23.979Z,41.80
2022-11-20T09:35:27.351Z,45.00
2022-11-20T09:40:33.618Z,41.20
2022-11-20T09:46:15.516Z,48.40
2022-11-20T09:51:41.812Z,42.40
2022-11-20T09:57:04.773Z,44.70
2022-11-20T10:02:18.597Z,45.60
2022-11-20T10:07:33.557Z,38.20
2022-11-20T10:13:02.661Z,45.60
2022-11-20T10:18:12.024Z,42.80
2022-11-20T10:24:00.906Z,41.70
2022-11-20T10:29:27.652Z,42.80
2022-11-20T10:34:53.771Z,35.10
2022-11-20T10:40:07.496Z,50.20
2022-11-20T10:45:21.092Z,41.50
2022-11-20T10:50:24.450Z,49.20
2022-11-20T10:55:51.937Z,47.20
2022-11-20T11:01:06.484Z,46.20
2022-11-20T11:06:29.565Z,46.20
2022-11-20T11:11:34.851Z,50.60
2022-11-20T11:16:54.543Z,48.20
2022-11-20T11:21:59.899Z,51.00
2022-11-20T11:27:16.464Z,41.70
2022-11-20T11:32:23.361Z,40.80
2022-11-20T11:37:36.560Z,49.80
2022-11-20T11:42:55.340Z,49.30
2022-11-20T11:48:02.103Z,43.70
2022-11-20T11:53:16.643Z,58.00
2022-11-20T11:58:43.252Z,53.20
2022-11-20T12:04:01.442Z,60.60
2022-11-20T12:09:10.409Z,52.90
2022-11-20T12:14:25.212Z,63.40
2022-11-20T12:19:31.734Z,60.40
2022-11-20T12:25:06.235Z,58.70
2022-11-20T12:30:18.003Z,59.70
2022-11-20T12:36:06.416Z,54.70
2022-11-20T12:41:52.621Z,49.30
2022-11-20T12:47:25.120Z,54.90
2022-11-20T12:52:36.162Z,53.70
2022-11-20T12:57:56.392Z,39.90
2022-11-20T13:03:29.274Z,43.30
2022-11-20T13:08:42.180Z,38.20
2022-11-20T13:13:54.750Z,41.00
2022-11-20T13:19:02.689Z,46.20
2022-11-20T13:24:31.395Z,40.10
2022-11-20T13:29:39.382Z,41.80
2022-11-20T13:34:57.844Z,40.40
2022-11-20T13:40:14.602Z,40.30
2022-11-20T13:45:30.245Z,43.10
2022-11-20T13:50:48.606Z,41.40
2022-11-20T13:56:02.993Z,42.10
2022-11-20T14:01:19.428Z,35.70
2022-11-20T14:06:33.036Z,45.40
2022-11-20T14:11:36.522Z,41.40
2022-11-20T14:16:40.350Z,41.80
2022-11-20T14:21:44.604Z,45.90
2022-11-20T14:26:48.935Z,34.60
2022-11-20T14:31:55.844Z,43.00
2022-11-20T14:37:06.732Z,36.30
2022-11-20T14:42:18.220Z,43.50
2022-11-20T14:47:31.474Z,30.80
2022-11-20T14:52:34.670Z,48.60
2022-11-20T14:57:38.217Z,32.50
2022-11-20T15:02:46.253Z,28.20
2022-11-20T15:07:53.137Z,39.40
2022-11-20T15:13:03.786Z,43.90
2022-11-20T15:18:18.425Z,41.80
2022-11-20T15:23:24.656Z,40.70
2022-11-20T15:28:35.124Z,42.80
2022-11-20T15:33:38.435Z,35.80
2022-11-20T15:38:42.347Z,43.80
2022-11-20T15:43:46.336Z,42.40
2022-11-20T15:48:55.875Z,42.50
2022-11-20T15:54:00.106Z,41.50
2022-11-20T15:59:03.532Z,44.60
2022-11-20T16:04:12.116Z,40.50
2022-11-20T16:09:15.332Z,30.30
2022-11-20T16:14:37.156Z,37.10
2022-11-20T16:19:40.397Z,27.40
2022-11-20T16:24:43.624Z,35.30
2022-11-20T16:29:46.861Z,36.30
2022-11-20T16:34:51.041Z,39.40
2022-11-20T16:39:54.219Z,37.50
2022-11-20T16:44:57.418Z,33.40
2022-11-20T16:50:00.812Z,24.00
2022-11-20T16:55:04.203Z,40.60
2022-11-20T17:00:08.271Z,39.90
2022-11-20T17:05:26.484Z,38.90
2022-11-20T17:10:29.726Z,41.20
2022-11-20T17:15:33.061Z,42.50
2022-11-20T17:20:36.251Z,28.70
2022-11-20T17:25:39.615Z,38.40
2022-11-20T17:30:42.825Z,43.20
2022-11-20T17:35:46.101Z,37.80
2022-11-20T17:40:49.297Z,42.40
2022-11-20T17:45:52.461Z,42.80
2022-11-20T17:51:01.490Z,48.70
2022-11-20T17:56:24.959Z,52.90
2022-11-20T18:01:28.259Z,49.70
2022-11-20T18:06:32.375Z,43.60
2022-11-20T18:11:41.104Z,49.10
2022-11-20T18:16:47.729Z,56.20
2022-11-20T18:21:51.389Z,44.70
2022-11-20T18:26:54.582Z,52.80
2022-11-20T18:31:59.145Z,50.10
2022-11-20T18:37:02.758Z,50.20
2022-11-20T18:42:24.617Z,56.10
2022-11-20T18:47:34.341Z,58.30
2022-11-20T18:52:44.689Z,52.50
2022-11-20T18:57:48.198Z,61.80
2022-11-20T19:02:54.507Z,53.30
2022-11-20T19:07:58.074Z,48.90
2022-11-20T19:13:01.276Z,25.60
2022-11-20T19:18:04.621Z,51.40
2022-11-20T19:23:07.822Z,39.10
2022-11-20T19:28:11.081Z,55.50
2022-11-20T19:33:14.548Z,47.70
2022-11-20T19:38:17.741Z,44.30
2022-11-20T19:43:21.265Z,49.50
2022-11-20T19:48:24.420Z,49.20
2022-11-20T19:53:30.138Z,37.20
2022-11-20T19:58:33.535Z,37.10
2022-11-20T20:03:36.969Z,53.20
2022-11-20T20:08:41.062Z,36.50
2022-11-20T20:13:45.229Z,50.40
2022-11-20T20:18:48.772Z,49.80
2022-11-20T20:23:55.721Z,42.60
2022-11-20T20:28:59.601Z,48.10
2022-11-20T20:34:05.560Z,54.20
2022-11-20T20:39:11.267Z,48.80
2022-11-20T20:44:33.204Z,51.50
2022-11-20T20:49:36.383Z,52.60
2022-11-20T20:54:42.192Z,48.30
2022-11-20T20:59:45.557Z,50.60
2022-11-20T21:04:49.011Z,48.40
2022-11-20T21:09:52.348Z,51.50
2022-11-20T21:14:55.538Z,60.30
2022-11-20T21:19:58.727Z,56.70
2022-11-20T21:25:01.894Z,57.90
2022-11-20T21:30:05.398Z,59.60
2022-11-20T21:35:08.768Z,60.00
2022-11-20T21:40:12.037Z,57.30
2022-11-20T21:45:15.170Z,52.30
2022-11-20T21:50:19.423Z,56.60
2022-11-20T21:55:22.549Z,51.80
2022-11-20T22:00:25.744Z,42.40
2022-11-20T22:05:29.048Z,57.60
2022-11-20T22:10:32.314Z,53.50
2022-11-20T22:15:59.317Z,64.50
2022-11-20T22:21:05.577Z,56.50
2022-11-20T22:26:11.446Z,58.60
2022-11-20T22:31:15.490Z,55.50
2022-11-20T22:36:24.466Z,58.50
2022-11-20T22:41:29.176Z,53.60
2022-11-20T22:46:35.416Z,49.80
2022-11-20T22:51:41.060Z,49.60
2022-11-20T22:56:45.716Z,49.20
2022-11-20T23:01:49.030Z,54.50
2022-11-20T23:06:52.338Z,44.50
2022-11-20T23:11:55.465Z,54.80
2022-11-20T23:16:59.136Z,52.90
2022-11-20T23:22:02.378Z,47.20
2022-11-20T23:27:05.640Z,54.40
2022-11-20T23:32:08.816Z,50.40
2022-11-20T23:37:12.026Z,56.50
2022-11-20T23:42:15.375Z,54.60
2022-11-20T23:47:18.627Z,45.80
2022-11-20T23:52:22.431Z,56.30
2022-11-20T23:57:25.991Z,49.60
